Germantown, Maryland
Current Conditions -  °F | °C
As of 6:55 PM on Monday 20 Oct 2014 (Local Time) from KGAI Reporting Station
Clear Clear  
Wind Chill: 15°   Ceiling: Unl
Heat Index: 15°   Visibility: 10mi
Dew Point:   Wind: 5mph
Humidity: 59%   Direction: 140°SE
Pressure: 29.98"   Gusts: NA
Location:  39.18°N, 77.27°W
Report Text: KGAI 202255Z 14004KT 10SM CLR 15/07 A2998 RMK AO1
Loading
Personal Weather Stations






























Interactive Weather Map
Tropical Storm Tracking
New forecast layout! Learn more

10-Day Weather Forecast

Advertisements
Track Severe Weather on mobile